Terminal Aerodrome Forecast
Issued by NWS

Current Version | Previous Version | Text Only | Print | Product List | Glossary Off
Versions: 1 2 3 4 5 6 7 8 9 10 11 12 13 14 15 16 17 18 19 20 21

614
FTUS41 KILN 220704 AAB
TAFLUK
TAF AMD
KLUK 220704Z 2207/2306 00000KT 1/4SM FG VV002
      TEMPO 2211/2213 3SM BR BKN080
     FM221300 06003KT P6SM OVC080
     FM222000 06010KT P6SM VCSH OVC080
     FM230000 03010KT 5SM -SHRA BR OVC020=

USA.gov is the U.S. government's official web portal to all federal, state and local government web resources and services.